Time;durP1;ratioP1;P1;durP2;ratioP2;P2;SDS_P1;SDS_P2;PMS_P1;PMS_P2;Temp;Humidity;BMP_temperature;BMP_pressure;BME280_temperature;BME280_humidity;BME280_pressure;Samples;Min_cycle;Max_cycle;Signal;HPM_P1;HPM_P2
2022/02/19 00:02:12;;;;;;;21.07;2.57;;;7.20;99.90;;;;;;4975543;28;20273;-91
2022/02/19 00:04:39;;;;;;;15.17;2.00;;;7.30;99.90;;;;;;4960101;28;20525;-89
2022/02/19 00:07:06;;;;;;;9.63;2.13;;;7.20;99.90;;;;;;4978819;28;20175;-90
2022/02/19 00:09:32;;;;;;;10.73;3.20;;;7.30;99.90;;;;;;4979293;28;20182;-90
2022/02/19 00:11:57;;;;;;;9.37;2.33;;;7.30;99.90;;;;;;4979700;28;20194;-92
2022/02/19 00:14:23;;;;;;;12.50;2.60;;;7.20;99.90;;;;;;4981301;28;20531;-90
2022/02/19 00:16:49;;;;;;;10.17;1.80;;;7.10;99.90;;;;;;4998946;28;20162;-90
2022/02/19 00:19:15;;;;;;;15.10;2.40;;;7.10;99.90;;;;;;4999080;28;20199;-91
2022/02/19 00:21:42;;;;;;;11.37;2.27;;;7.10;99.90;;;;;;4980800;28;20230;-90
2022/02/19 00:24:08;;;;;;;12.93;1.70;;;7.00;99.90;;;;;;4979608;28;20178;-90
2022/02/19 00:26:35;;;;;;;12.73;2.90;;;6.90;99.90;;;;;;4979264;28;20706;-90
2022/02/19 00:29:00;;;;;;;7.90;1.10;;;6.80;99.90;;;;;;4979413;28;20174;-90
2022/02/19 00:31:27;;;;;;;8.07;1.80;;;6.80;99.90;;;;;;4979260;28;20208;-90
2022/02/19 00:33:53;;;;;;;12.70;3.70;;;6.70;99.90;;;;;;4979195;28;20188;-90
2022/02/19 00:36:20;;;;;;;6.43;1.20;;;6.80;99.90;;;;;;4979060;28;20180;-90
2022/02/19 00:38:45;;;;;;;11.40;2.23;;;6.80;99.90;;;;;;4978329;28;20183;-90
2022/02/19 00:41:11;;;;;;;8.07;1.47;;;6.80;99.90;;;;;;4979157;28;20178;-90
2022/02/19 00:43:36;;;;;;;9.53;2.00;;;6.90;99.90;;;;;;4979126;28;20183;-90
2022/02/19 00:46:02;;;;;;;7.23;1.57;;;6.80;99.90;;;;;;4978991;28;20178;-90
2022/02/19 00:48:28;;;;;;;10.83;1.70;;;6.90;99.90;;;;;;4978785;28;20654;-90
2022/02/19 00:50:53;;;;;;;11.50;1.70;;;6.90;99.90;;;;;;4979112;28;20178;-90
2022/02/19 00:53:19;;;;;;;6.40;1.07;;;7.00;99.90;;;;;;4978783;28;20635;-90
2022/02/19 00:55:45;;;;;;;11.30;1.70;;;6.90;99.90;;;;;;4978990;28;20709;-90
2022/02/19 00:58:11;;;;;;;8.87;1.10;;;7.00;99.90;;;;;;4978837;28;20408;-90
2022/02/19 01:00:37;;;;;;;8.53;2.30;;;7.00;99.90;;;;;;4979434;28;20273;-90
2022/02/19 01:03:03;;;;;;;8.07;1.63;;;7.00;99.90;;;;;;4979459;28;20249;-90
2022/02/19 01:05:29;;;;;;;10.43;1.50;;;7.00;99.90;;;;;;4979072;28;20625;-90
2022/02/19 01:07:55;;;;;;;9.83;1.80;;;6.90;99.90;;;;;;4978868;28;20271;-90
2022/02/19 01:10:22;;;;;;;6.73;1.70;;;6.90;99.90;;;;;;4978456;28;20178;-90
2022/02/19 01:12:48;;;;;;;10.90;1.70;;;6.70;99.90;;;;;;4978552;28;20627;-90
2022/02/19 01:15:14;;;;;;;8.20;1.73;;;6.70;99.90;;;;;;4978444;28;20192;-90
2022/02/19 01:17:40;;;;;;;9.10;1.30;;;6.60;99.90;;;;;;4978463;28;20174;-90
2022/02/19 01:20:10;;;;;;;9.30;1.73;;;6.60;99.90;;;;;;4978711;28;20237;-90
2022/02/19 01:22:42;;;;;;;4.53;1.13;;;6.60;99.90;;;;;;4978068;28;20214;-90
2022/02/19 01:25:10;;;;;;;9.37;1.20;;;6.50;99.90;;;;;;4978186;28;20184;-90
2022/02/19 01:27:36;;;;;;;6.57;0.87;;;6.50;99.90;;;;;;4978114;28;20260;-90
2022/02/19 01:30:03;;;;;;;6.37;1.43;;;6.50;99.90;;;;;;4978041;28;20277;-91
2022/02/19 01:32:30;;;;;;;9.90;1.23;;;6.50;99.90;;;;;;4977943;28;20240;-90
2022/02/19 01:34:55;;;;;;;4.83;1.00;;;6.50;99.90;;;;;;4978108;28;20662;-90
2022/02/19 01:37:21;;;;;;;9.50;1.87;;;6.60;99.90;;;;;;4978294;28;20181;-90
2022/02/19 01:39:47;;;;;;;4.63;1.20;;;6.60;99.90;;;;;;4977981;28;20179;-90
2022/02/19 01:42:12;;;;;;;6.93;1.10;;;6.60;99.90;;;;;;4978149;28;20217;-90
2022/02/19 01:44:43;;;;;;;14.00;1.60;;;6.70;99.90;;;;;;4977820;28;20182;-88
2022/02/19 01:47:10;;;;;;;6.10;0.90;;;6.60;99.90;;;;;;4977809;28;20183;-90
2022/02/19 01:49:36;;;;;;;4.73;1.00;;;6.60;99.90;;;;;;4977446;28;20191;-90
2022/02/19 01:52:06;;;;;;;8.83;0.93;;;6.60;99.90;;;;;;4977084;28;20273;-90
2022/02/19 01:54:33;;;;;;;5.73;1.20;;;6.50;99.90;;;;;;4977562;28;20183;-90
2022/02/19 01:57:02;;;;;;;4.47;1.53;;;6.50;99.90;;;;;;4977889;28;20538;-90
2022/02/19 01:59:28;;;;;;;6.70;1.17;;;6.30;99.90;;;;;;4977707;28;20244;-90
2022/02/19 02:01:54;;;;;;;5.07;0.80;;;6.20;99.90;;;;;;4977402;28;20222;-89
2022/02/19 02:04:20;;;;;;;7.40;1.13;;;6.30;99.90;;;;;;4977508;28;20544;-90
2022/02/19 02:06:48;;;;;;;7.77;1.10;;;6.40;99.90;;;;;;4977280;28;20685;-90
2022/02/19 02:09:17;;;;;;;5.80;1.30;;;6.30;99.90;;;;;;4977262;28;20182;-90
2022/02/19 02:11:45;;;;;;;5.67;1.07;;;6.40;99.90;;;;;;4977280;28;20265;-90
2022/02/19 02:14:11;;;;;;;10.33;1.37;;;6.40;99.90;;;;;;4977202;28;20183;-90
2022/02/19 02:16:41;;;;;;;4.00;0.90;;;6.30;99.90;;;;;;4977447;28;20545;-90
2022/02/19 02:19:08;;;;;;;6.23;0.97;;;6.20;99.90;;;;;;4977329;28;20178;-90
2022/02/19 02:21:35;;;;;;;7.27;1.30;;;6.20;99.90;;;;;;4977390;28;20643;-90
2022/02/19 02:24:02;;;;;;;5.10;1.03;;;6.20;99.90;;;;;;4976944;28;20212;-91
2022/02/19 02:26:28;;;;;;;6.40;1.30;;;6.20;99.90;;;;;;4976998;28;20178;-90
2022/02/19 02:28:54;;;;;;;6.87;1.40;;;6.10;99.90;;;;;;4977276;28;20221;-90
2022/02/19 02:31:20;;;;;;;5.93;0.97;;;6.10;99.90;;;;;;4977127;28;20174;-90
2022/02/19 02:33:51;;;;;;;6.27;1.17;;;6.20;99.90;;;;;;4977171;28;20249;-91
2022/02/19 02:36:17;;;;;;;2.87;0.97;;;6.10;99.90;;;;;;4977144;28;20170;-91
2022/02/19 02:38:44;;;;;;;6.03;1.03;;;6.20;99.90;;;;;;4977175;28;20182;-91
2022/02/19 02:41:09;;;;;;;6.87;0.90;;;6.10;99.90;;;;;;4977078;28;20638;-91
2022/02/19 02:43:36;;;;;;;4.63;1.20;;;6.00;99.90;;;;;;4994710;28;20247;-91
2022/02/19 02:46:02;;;;;;;13.53;1.73;;;6.00;99.90;;;;;;4976932;28;20654;-91
2022/02/19 02:48:28;;;;;;;7.73;1.20;;;6.10;99.90;;;;;;4976839;28;20185;-90
2022/02/19 02:50:55;;;;;;;16.20;1.37;;;6.00;99.90;;;;;;4976602;28;20730;-90
2022/02/19 02:53:24;;;;;;;8.23;1.20;;;6.00;99.90;;;;;;4976956;28;20579;-91
2022/02/19 02:55:50;;;;;;;9.77;1.20;;;6.10;99.90;;;;;;4977185;28;20600;-91
2022/02/19 02:58:16;;;;;;;10.47;1.53;;;6.10;99.90;;;;;;4984338;28;20193;-90
2022/02/19 03:00:43;;;;;;;6.60;1.10;;;6.00;99.90;;;;;;4988057;28;20181;-91
2022/02/19 03:03:08;;;;;;;10.50;1.17;;;6.10;99.90;;;;;;4981628;28;20261;-91
2022/02/19 03:05:34;;;;;;;4.47;1.07;;;6.10;99.90;;;;;;4980339;28;20187;-90
2022/02/19 03:08:00;;;;;;;6.00;1.43;;;6.10;99.90;;;;;;4980870;28;20209;-91
2022/02/19 03:10:27;;;;;;;8.93;1.77;;;6.20;99.90;;;;;;4980542;28;20182;-90
2022/02/19 03:12:52;;;;;;;9.87;2.00;;;6.20;99.90;;;;;;4980556;28;20201;-90
2022/02/19 03:15:18;;;;;;;8.07;1.43;;;6.10;99.90;;;;;;4980911;28;20186;-91
2022/02/19 03:17:48;;;;;;;4.47;1.10;;;6.10;99.90;;;;;;4980540;28;20207;-90
2022/02/19 03:20:19;;;;;;;4.27;0.97;;;6.10;99.90;;;;;;4979930;28;20277;-91
2022/02/19 03:22:46;;;;;;;10.93;1.23;;;6.10;99.90;;;;;;4980583;28;20574;-90
2022/02/19 03:25:16;;;;;;;7.43;1.50;;;6.00;99.90;;;;;;4980340;28;20197;-90
2022/02/19 03:27:43;;;;;;;8.03;1.23;;;6.00;99.90;;;;;;4980580;28;20196;-91
2022/02/19 03:30:10;;;;;;;5.80;1.63;;;6.00;99.90;;;;;;4980339;28;20205;-90
2022/02/19 03:32:36;;;;;;;9.47;1.50;;;6.00;99.90;;;;;;4980324;28;20186;-91
2022/02/19 03:35:03;;;;;;;5.00;1.10;;;6.00;99.90;;;;;;4980072;28;20240;-90
2022/02/19 03:37:35;;;;;;;8.57;1.70;;;6.00;99.90;;;;;;4980279;28;20189;-90
2022/02/19 03:40:06;;;;;;;7.23;1.10;;;6.10;99.90;;;;;;4980105;28;20182;-90
2022/02/19 03:42:36;;;;;;;4.53;0.93;;;6.10;99.90;;;;;;4979905;28;20218;-91
2022/02/19 03:45:04;;;;;;;7.53;1.47;;;6.00;99.90;;;;;;4980346;28;20209;-90
2022/02/19 03:47:29;;;;;;;6.80;1.30;;;6.00;99.90;;;;;;4979849;28;20192;-90
2022/02/19 03:49:56;;;;;;;5.73;1.00;;;6.00;99.90;;;;;;4979797;28;20544;-90
2022/02/19 03:52:22;;;;;;;8.40;1.20;;;5.90;99.90;;;;;;4980011;28;20539;-89
2022/02/19 03:54:47;;;;;;;8.70;1.20;;;6.00;99.90;;;;;;4980061;28;20184;-90
2022/02/19 03:57:13;;;;;;;7.80;1.40;;;6.00;99.90;;;;;;4979672;28;20296;-90
2022/02/19 03:59:39;;;;;;;10.17;1.30;;;5.90;99.90;;;;;;4979703;28;20242;-91
2022/02/19 04:02:05;;;;;;;4.97;0.87;;;5.90;99.90;;;;;;4979458;28;20304;-91
2022/02/19 04:04:31;;;;;;;7.20;1.10;;;5.90;99.90;;;;;;4979527;28;20193;-90
2022/02/19 04:06:56;;;;;;;8.40;1.30;;;5.90;99.90;;;;;;4979554;28;20599;-91
2022/02/19 04:09:22;;;;;;;8.50;1.17;;;5.90;99.90;;;;;;4979691;28;20186;-90
2022/02/19 04:11:48;;;;;;;7.43;1.33;;;5.80;99.90;;;;;;4979767;28;20281;-91
2022/02/19 04:14:13;;;;;;;9.43;1.37;;;5.90;99.90;;;;;;4978578;28;20265;-91
2022/02/19 04:16:39;;;;;;;12.80;1.17;;;5.90;99.90;;;;;;4979302;28;20182;-90
2022/02/19 04:19:05;;;;;;;7.83;1.60;;;5.90;99.90;;;;;;4979528;28;20217;-91
2022/02/19 04:21:30;;;;;;;7.23;1.37;;;5.90;99.90;;;;;;4979225;28;20182;-91
2022/02/19 04:23:56;;;;;;;7.77;1.30;;;5.80;99.90;;;;;;4979513;28;20182;-90
2022/02/19 04:26:21;;;;;;;6.93;1.30;;;5.90;99.90;;;;;;4979465;28;20216;-90
2022/02/19 04:28:47;;;;;;;8.87;1.97;;;5.80;99.90;;;;;;4979381;28;20265;-90
2022/02/19 04:31:13;;;;;;;14.47;2.60;;;5.80;99.90;;;;;;4979183;28;20627;-91
2022/02/19 04:33:38;;;;;;;12.20;2.00;;;5.70;99.90;;;;;;4979218;28;20764;-91
2022/02/19 04:36:05;;;;;;;9.40;1.47;;;5.80;99.90;;;;;;4979265;28;20182;-90
2022/02/19 04:38:31;;;;;;;10.00;1.53;;;5.90;99.90;;;;;;4979112;28;20177;-90
2022/02/19 04:40:56;;;;;;;11.17;1.60;;;5.90;99.90;;;;;;4979091;28;20174;-90
2022/02/19 04:43:22;;;;;;;8.37;1.57;;;5.90;99.90;;;;;;4979350;28;20217;-91
2022/02/19 04:45:48;;;;;;;15.13;1.83;;;5.80;99.90;;;;;;4981487;28;20590;-90
2022/02/19 04:48:14;;;;;;;8.83;1.57;;;5.80;99.90;;;;;;4980444;28;20193;-90
2022/02/19 04:50:40;;;;;;;7.10;1.47;;;5.90;99.90;;;;;;4978871;28;20224;-91
2022/02/19 04:53:05;;;;;;;6.97;1.40;;;5.70;99.90;;;;;;4979047;28;20206;-91
2022/02/19 04:55:31;;;;;;;12.07;2.00;;;5.80;99.90;;;;;;4978963;28;20631;-91
2022/02/19 04:57:57;;;;;;;8.40;1.80;;;5.80;99.90;;;;;;4978677;28;20204;-90
2022/02/19 05:00:23;;;;;;;9.27;2.03;;;5.80;99.90;;;;;;4962347;28;20181;-90
2022/02/19 05:02:48;;;;;;;10.33;2.07;;;5.80;99.90;;;;;;4978483;28;20300;-91
2022/02/19 05:05:14;;;;;;;11.07;1.93;;;5.80;99.90;;;;;;4978712;28;20705;-91
2022/02/19 05:07:40;;;;;;;10.77;1.77;;;5.80;99.90;;;;;;4978450;28;20217;-91
2022/02/19 05:10:06;;;;;;;13.10;1.90;;;5.70;99.90;;;;;;4978706;28;20182;-91
2022/02/19 05:12:32;;;;;;;15.43;1.80;;;5.60;99.90;;;;;;4978580;28;20190;-91
2022/02/19 05:15:02;;;;;;;12.07;1.97;;;5.60;99.90;;;;;;4978517;28;20170;-91
2022/02/19 05:17:27;;;;;;;11.63;2.10;;;5.60;99.90;;;;;;4978017;28;20178;-91
2022/02/19 05:19:53;;;;;;;13.63;2.03;;;5.60;99.90;;;;;;4978367;28;20178;-90
2022/02/19 05:22:18;;;;;;;11.20;1.60;;;5.60;99.90;;;;;;4978084;28;20228;-91
2022/02/19 05:24:45;;;;;;;12.93;2.83;;;5.70;99.90;;;;;;4995108;28;20194;-91
2022/02/19 05:27:10;;;;;;;11.63;1.90;;;5.70;99.90;;;;;;4978365;28;20205;-91
2022/02/19 05:29:37;;;;;;;11.67;2.10;;;5.80;99.90;;;;;;4977925;28;20520;-90
2022/02/19 05:32:03;;;;;;;11.57;2.33;;;5.80;99.90;;;;;;4978499;28;20260;-91
2022/02/19 05:34:28;;;;;;;16.17;2.07;;;5.70;99.90;;;;;;4978077;28;20285;-91
2022/02/19 05:36:54;;;;;;;15.97;2.23;;;5.80;99.90;;;;;;4978128;28;20201;-91
2022/02/19 05:39:20;;;;;;;18.73;2.33;;;5.80;99.90;;;;;;4977940;28;20220;-91
2022/02/19 05:41:45;;;;;;;11.13;1.70;;;5.60;99.90;;;;;;4977718;28;20198;-91
2022/02/19 05:44:11;;;;;;;12.17;1.53;;;5.70;99.90;;;;;;4978537;28;20643;-91
2022/02/19 05:46:38;;;;;;;12.40;1.97;;;5.70;99.90;;;;;;4979063;28;20609;-91
2022/02/19 05:49:04;;;;;;;13.10;2.07;;;5.80;99.90;;;;;;4978486;28;20305;-91
2022/02/19 05:51:30;;;;;;;8.57;2.23;;;5.80;99.90;;;;;;4977873;28;20316;-90
2022/02/19 05:53:56;;;;;;;13.03;2.50;;;5.70;99.90;;;;;;4977706;28;20272;-91
2022/02/19 05:56:21;;;;;;;9.90;1.53;;;5.70;99.90;;;;;;4977793;28;20201;-91
2022/02/19 05:58:47;;;;;;;13.07;2.43;;;5.60;99.90;;;;;;4977256;28;20182;-91
2022/02/19 06:01:13;;;;;;;14.63;1.87;;;5.60;99.90;;;;;;4977335;28;20705;-91
2022/02/19 06:03:39;;;;;;;12.53;2.13;;;5.60;99.90;;;;;;4977470;28;20244;-91
2022/02/19 06:06:05;;;;;;;13.07;1.90;;;5.60;99.90;;;;;;4977669;28;20627;-90
2022/02/19 06:08:32;;;;;;;16.10;3.23;;;5.60;99.90;;;;;;4977268;28;20625;-90
2022/02/19 06:10:58;;;;;;;14.80;1.97;;;5.70;99.90;;;;;;4977509;28;20177;-91
2022/02/19 06:13:24;;;;;;;13.67;2.33;;;5.70;99.90;;;;;;4977447;28;20173;-91
2022/02/19 06:15:50;;;;;;;12.47;2.10;;;5.80;99.90;;;;;;4960834;28;20240;-90
2022/02/19 06:18:16;;;;;;;13.23;2.00;;;5.70;99.90;;;;;;4977628;28;20556;-91
2022/02/19 06:20:42;;;;;;;13.47;2.40;;;5.70;99.90;;;;;;4977032;28;20639;-91
2022/02/19 06:23:08;;;;;;;15.73;2.33;;;5.70;99.90;;;;;;4977445;28;20221;-90
2022/02/19 06:25:34;;;;;;;13.53;3.70;;;5.60;99.90;;;;;;4977136;28;20178;-91
2022/02/19 06:28:00;;;;;;;8.73;2.07;;;5.60;99.90;;;;;;4977184;28;20277;-90
2022/02/19 06:30:26;;;;;;;13.93;2.10;;;5.50;99.90;;;;;;4976775;28;20182;-91
2022/02/19 06:32:51;;;;;;;11.03;1.77;;;5.40;99.90;;;;;;4977258;28;20725;-89
2022/02/19 06:35:17;;;;;;;10.20;2.10;;;5.60;99.90;;;;;;4976953;28;20297;-91
2022/02/19 06:37:46;;;;;;;10.70;3.03;;;5.60;99.90;;;;;;4976460;28;20182;-91
2022/02/19 06:40:14;;;;;;;7.87;1.67;;;5.70;99.90;;;;;;4977101;28;20190;-91
2022/02/19 06:42:41;;;;;;;17.50;2.33;;;5.60;99.90;;;;;;4976855;28;20217;-91
2022/02/19 06:45:07;;;;;;;12.10;2.13;;;5.50;99.90;;;;;;4976828;28;20615;-91
2022/02/19 06:47:34;;;;;;;16.20;2.97;;;5.50;99.90;;;;;;4976849;28;20274;-91
2022/02/19 06:50:01;;;;;;;13.47;1.93;;;5.40;99.90;;;;;;4976921;28;20182;-91
2022/02/19 06:52:31;;;;;;;15.57;2.57;;;5.40;99.90;;;;;;4975017;28;20189;-91
2022/02/19 06:54:56;;;;;;;12.57;2.27;;;5.60;99.90;;;;;;4976654;28;20182;-91
2022/02/19 06:57:22;;;;;;;15.77;2.47;;;5.50;99.90;;;;;;4976282;28;20213;-91
2022/02/19 06:59:53;;;;;;;10.97;2.47;;;5.50;99.90;;;;;;4992605;28;20185;-91
2022/02/19 07:02:19;;;;;;;12.33;2.20;;;5.60;99.90;;;;;;4975421;28;20217;-90
2022/02/19 07:04:46;;;;;;;12.53;2.03;;;5.60;99.90;;;;;;4976713;28;20213;-90
2022/02/19 07:07:15;;;;;;;13.53;2.63;;;5.50;99.90;;;;;;4978907;28;20190;-90
2022/02/19 07:09:41;;;;;;;14.60;2.30;;;5.50;99.90;;;;;;4977107;28;20266;-91
2022/02/19 07:12:07;;;;;;;12.67;2.50;;;5.60;99.90;;;;;;4992958;28;20305;-90
2022/02/19 07:14:33;;;;;;;10.13;2.37;;;5.70;99.90;;;;;;4974870;28;20190;-91
2022/02/19 07:17:04;;;;;;;7.23;2.03;;;5.80;99.90;;;;;;4990084;28;20301;-89
2022/02/19 07:19:37;;;;;;;15.87;2.40;;;5.80;99.90;;;;;;4975536;28;20186;-90
2022/02/19 07:22:03;;;;;;;13.37;2.83;;;5.80;99.90;;;;;;4963871;28;20206;-89
2022/02/19 07:24:30;;;;;;;12.03;2.97;;;5.80;99.90;;;;;;4971729;28;20647;-89
2022/02/19 07:26:57;;;;;;;15.27;3.07;;;5.80;99.90;;;;;;4976084;28;20190;-90
2022/02/19 07:29:26;;;;;;;16.77;2.10;;;5.80;99.90;;;;;;4976995;28;20679;-89
2022/02/19 07:31:52;;;;;;;16.40;2.10;;;5.90;99.90;;;;;;4976987;28;20181;-92
2022/02/19 07:34:18;;;;;;;9.37;2.07;;;5.90;99.90;;;;;;4976684;28;20185;-89
2022/02/19 07:36:45;;;;;;;14.83;2.40;;;5.90;99.90;;;;;;4976358;28;20174;-90
2022/02/19 07:39:12;;;;;;;12.63;2.10;;;6.00;99.90;;;;;;4977479;28;20174;-89
2022/02/19 07:41:38;;;;;;;21.47;2.47;;;6.00;99.90;;;;;;4976455;28;20560;-90
2022/02/19 07:44:07;;;;;;;17.97;2.17;;;6.00;99.90;;;;;;4976919;28;20662;-90
2022/02/19 07:46:33;;;;;;;12.37;2.10;;;6.10;99.90;;;;;;4976908;28;20179;-90
2022/02/19 07:58:18;;;;;;;22.87;3.23;;;6.20;99.90;;;;;;4979414;28;20224;-89
2022/02/19 08:00:08;;;;;;;13.50;2.30;;;6.00;99.90;;;;;;4999387;28;20241;-90
2022/02/19 08:02:37;;;;;;;14.90;2.33;;;6.00;99.90;;;;;;4980542;28;20297;-88
2022/02/19 08:05:03;;;;;;;12.90;2.20;;;6.00;99.90;;;;;;4981021;28;20186;-88
2022/02/19 08:07:29;;;;;;;13.23;2.20;;;6.10;99.90;;;;;;4980589;28;20713;-91
2022/02/19 08:09:57;;;;;;;10.13;2.30;;;6.10;99.90;;;;;;4980036;28;20268;-89
2022/02/19 08:12:23;;;;;;;14.30;2.33;;;6.00;99.90;;;;;;4979868;28;20224;-89
2022/02/19 11:57:14;;;;;;;9.33;2.07;;;14.20;96.00;;;;;;6060888;23;20234;-89
2022/02/19 11:59:44;;;;;;;7.83;1.50;;;13.60;96.70;;;;;;4998336;28;20212;-88
2022/02/19 12:02:23;;;;;;;5.33;1.37;;;13.80;97.20;;;;;;4998658;28;20224;-88
2022/02/19 12:05:22;;;;;;;7.53;1.50;;;14.20;96.40;;;;;;4999568;28;20300;-89
2022/02/19 12:08:02;;;;;;;5.07;1.60;;;14.60;95.80;;;;;;4998861;28;20625;-89
2022/02/19 12:10:30;;;;;;;5.63;1.57;;;15.40;94.90;;;;;;4998880;28;20245;-89
2022/02/19 12:13:08;;;;;;;6.53;1.10;;;15.80;93.80;;;;;;4998644;28;20185;-89
2022/02/19 12:15:35;;;;;;;8.70;1.53;;;16.30;93.10;;;;;;4999035;28;20181;-89
2022/02/19 12:18:01;;;;;;;3.77;1.20;;;17.20;92.20;;;;;;4998616;28;20186;-89
2022/02/19 12:20:33;;;;;;;7.10;1.53;;;16.60;92.30;;;;;;4999015;28;20609;-89
2022/02/19 12:23:02;;;;;;;12.47;1.73;;;15.20;93.50;;;;;;4998714;28;20228;-89
2022/02/19 12:25:55;;;;;;;9.03;1.93;;;14.40;94.60;;;;;;4998644;28;20236;-89
2022/02/19 12:28:22;;;;;;;11.13;1.80;;;14.10;94.90;;;;;;4998692;28;20218;-89
2022/02/19 12:31:31;;;;;;;8.57;1.70;;;12.80;96.10;;;;;;4998582;28;20209;-91
2022/02/19 12:33:58;;;;;;;6.43;1.60;;;12.50;96.50;;;;;;4998813;28;20181;-89
2022/02/19 12:36:24;;;;;;;5.67;1.70;;;12.20;97.40;;;;;;4997557;28;20179;-89
2022/02/19 12:38:52;;;;;;;9.20;2.13;;;11.60;98.90;;;;;;4998403;28;20205;-89
2022/02/19 12:41:19;;;;;;;9.50;1.70;;;11.50;99.20;;;;;;4998567;28;20177;-91
2022/02/19 12:44:05;;;;;;;12.83;2.03;;;11.90;99.10;;;;;;4998184;28;20208;-91
2022/02/19 12:46:34;;;;;;;9.27;2.00;;;11.90;98.40;;;;;;4998173;28;20177;-91
2022/02/19 12:49:00;;;;;;;7.37;2.07;;;11.80;98.60;;;;;;4998259;28;20173;-90
2022/02/19 12:51:26;;;;;;;7.70;1.77;;;11.50;98.90;;;;;;4998296;28;20184;-91
2022/02/19 12:53:52;;;;;;;9.20;1.67;;;11.20;99.40;;;;;;4998264;28;20201;-89
2022/02/19 12:56:17;;;;;;;6.73;1.57;;;10.80;99.90;;;;;;4990661;28;20201;-89
2022/02/19 12:58:48;;;;;;;6.47;1.90;;;10.80;99.90;;;;;;4978576;28;20209;-89
2022/02/19 13:01:14;;;;;;;10.07;1.93;;;10.80;99.90;;;;;;4978512;28;20634;-91
2022/02/19 13:03:46;;;;;;;10.63;2.17;;;10.70;99.90;;;;;;4978507;28;20213;-90
2022/02/19 13:06:12;;;;;;;7.73;1.93;;;10.60;99.90;;;;;;4978439;28;20182;-89
2022/02/19 13:08:39;;;;;;;7.63;1.87;;;10.90;99.90;;;;;;4978443;28;20188;-89
2022/02/19 13:11:07;;;;;;;7.23;1.57;;;11.20;99.90;;;;;;4978646;28;20615;-89
2022/02/19 13:13:38;;;;;;;9.07;1.90;;;11.00;99.90;;;;;;4978116;28;20182;-90
2022/02/19 13:16:04;;;;;;;8.03;2.47;;;11.00;99.90;;;;;;4978401;28;20182;-89
2022/02/19 13:18:43;;;;;;;9.33;1.40;;;11.20;99.90;;;;;;4978215;28;20182;-90
2022/02/19 13:21:11;;;;;;;13.87;2.27;;;10.90;99.90;;;;;;4978239;28;20204;-89
2022/02/19 13:23:37;;;;;;;14.07;2.53;;;10.70;99.90;;;;;;4978049;28;20209;-90
2022/02/19 13:26:04;;;;;;;7.00;1.30;;;10.80;99.90;;;;;;4978257;28;20209;-89
2022/02/19 13:28:30;;;;;;;7.27;1.80;;;10.60;99.90;;;;;;4978105;28;20186;-90
2022/02/19 13:31:06;;;;;;;9.43;1.67;;;10.70;99.90;;;;;;4977876;28;20178;-89
2022/02/19 13:33:33;;;;;;;11.90;2.33;;;10.50;99.90;;;;;;4977876;28;20184;-89
2022/02/19 13:35:59;;;;;;;9.10;1.80;;;10.40;99.90;;;;;;4978264;28;20182;-90
2022/02/19 13:38:24;;;;;;;12.17;1.80;;;10.20;99.90;;;;;;4977636;28;20716;-90
2022/02/19 13:40:58;;;;;;;4.57;1.60;;;10.10;99.90;;;;;;4977981;28;20174;-90
2022/02/19 13:43:24;;;;;;;9.90;1.73;;;10.10;99.90;;;;;;4977602;28;20217;-90
2022/02/19 13:45:49;;;;;;;9.60;1.40;;;10.00;99.90;;;;;;4977909;28;20264;-89
2022/02/19 13:48:19;;;;;;;6.90;1.70;;;10.10;99.90;;;;;;4979000;28;20186;-89
2022/02/19 13:50:49;;;;;;;10.70;2.17;;;10.10;99.90;;;;;;4978396;28;20177;-89
2022/02/19 13:53:17;;;;;;;8.80;1.93;;;10.20;99.90;;;;;;4977344;28;20174;-89
2022/02/19 13:55:49;;;;;;;8.07;1.57;;;10.20;99.90;;;;;;4977582;28;20200;-89
2022/02/19 13:58:17;;;;;;;10.10;1.50;;;10.10;99.90;;;;;;4977272;28;20197;-89
2022/02/19 14:00:46;;;;;;;10.53;2.30;;;10.10;99.90;;;;;;4977509;28;20178;-89
2022/02/19 14:03:11;;;;;;;5.53;1.50;;;10.30;99.90;;;;;;4977536;28;20213;-90
2022/02/19 14:05:46;;;;;;;8.57;1.87;;;10.10;99.90;;;;;;4977441;28;20173;-89
2022/02/19 14:08:15;;;;;;;6.27;1.70;;;10.00;99.90;;;;;;4977621;28;20204;-90
2022/02/19 14:11:01;;;;;;;9.60;1.67;;;10.00;99.90;;;;;;4977139;28;20178;-89
2022/02/19 14:13:27;;;;;;;13.17;2.20;;;10.00;99.90;;;;;;4977092;28;20180;-89
2022/02/19 14:15:54;;;;;;;8.73;2.20;;;9.90;99.90;;;;;;4977175;28;20169;-89
2022/02/19 14:18:21;;;;;;;6.63;1.90;;;9.90;99.90;;;;;;4977139;28;20635;-89
2022/02/19 14:20:48;;;;;;;9.73;1.70;;;9.80;99.90;;;;;;4977111;28;20277;-90
2022/02/19 14:23:20;;;;;;;7.43;1.60;;;9.80;99.90;;;;;;4977080;28;20212;-89
2022/02/19 14:25:49;;;;;;;13.70;2.07;;;10.00;99.90;;;;;;4977196;28;20178;-89
2022/02/19 14:28:20;;;;;;;6.97;1.73;;;10.10;99.90;;;;;;4976710;28;20667;-89
2022/02/19 14:30:49;;;;;;;11.07;1.47;;;10.10;99.90;;;;;;4976768;28;20176;-89
2022/02/19 14:33:17;;;;;;;9.70;1.90;;;9.90;99.90;;;;;;4977016;28;20184;-89
2022/02/19 14:35:43;;;;;;;11.10;2.07;;;9.90;99.90;;;;;;4977006;28;20181;-89
2022/02/19 14:38:17;;;;;;;7.70;1.70;;;9.90;99.90;;;;;;4976915;28;20185;-89
2022/02/19 14:40:43;;;;;;;6.80;2.00;;;10.10;99.90;;;;;;4976625;28;20639;-88
2022/02/19 14:43:08;;;;;;;8.73;1.47;;;10.10;99.90;;;;;;4976610;28;20219;-89
2022/02/19 14:45:34;;;;;;;7.23;1.33;;;9.80;99.90;;;;;;4976875;28;20177;-90
2022/02/19 14:48:00;;;;;;;15.93;2.00;;;9.70;99.90;;;;;;4976981;28;20236;-89
2022/02/19 14:50:25;;;;;;;8.07;1.50;;;9.80;99.90;;;;;;4976549;28;20268;-91
2022/02/19 14:52:51;;;;;;;11.40;2.07;;;9.70;99.90;;;;;;4977029;28;20182;-89
2022/02/19 14:55:17;;;;;;;7.13;1.60;;;9.70;99.90;;;;;;4976631;28;20215;-89
2022/02/19 14:57:42;;;;;;;9.60;1.67;;;9.70;99.90;;;;;;4975917;28;20222;-89
2022/02/19 15:00:08;;;;;;;6.77;1.57;;;9.60;99.90;;;;;;4976558;28;20228;-89
2022/02/19 15:02:35;;;;;;;8.77;1.93;;;9.80;99.90;;;;;;4976871;28;20212;-92
2022/02/19 15:05:00;;;;;;;6.27;1.50;;;9.80;99.90;;;;;;4976586;28;20181;-88
2022/02/19 15:07:27;;;;;;;6.90;1.50;;;9.70;99.90;;;;;;4976982;28;20711;-88
2022/02/19 15:09:52;;;;;;;6.67;1.73;;;9.50;99.90;;;;;;4976402;28;20183;-89
2022/02/19 15:12:18;;;;;;;3.17;1.50;;;9.60;99.90;;;;;;4976458;28;20268;-89
2022/02/19 15:14:44;;;;;;;10.17;1.73;;;9.70;99.90;;;;;;4976786;28;20348;-91
2022/02/19 15:17:09;;;;;;;8.27;2.43;;;9.80;99.90;;;;;;4976273;28;20213;-90
2022/02/19 15:19:35;;;;;;;9.63;1.83;;;9.90;99.90;;;;;;4976364;28;20185;-89
2022/02/19 15:22:03;;;;;;;10.13;1.40;;;9.80;99.90;;;;;;4976598;28;20236;-89
2022/02/19 15:24:28;;;;;;;7.63;1.20;;;9.80;99.90;;;;;;4976616;28;20260;-89
2022/02/19 15:26:55;;;;;;;7.60;1.20;;;9.80;99.90;;;;;;4976173;28;20173;-89
2022/02/19 15:29:23;;;;;;;8.17;1.30;;;9.60;99.90;;;;;;4976449;28;20200;-89
2022/02/19 15:31:49;;;;;;;7.17;1.20;;;9.30;99.90;;;;;;4976264;28;20194;-90
2022/02/19 15:34:16;;;;;;;6.57;1.30;;;9.40;99.90;;;;;;4979113;28;20623;-88
2022/02/19 15:36:42;;;;;;;9.40;1.50;;;9.40;99.90;;;;;;4976254;28;20280;-87
2022/02/19 15:39:08;;;;;;;9.03;1.50;;;9.30;99.90;;;;;;4976462;28;20183;-87
2022/02/19 15:41:34;;;;;;;6.30;1.40;;;9.30;99.90;;;;;;4976110;28;20215;-87
2022/02/19 15:44:00;;;;;;;7.10;1.20;;;9.40;99.90;;;;;;4976275;28;20281;-90
2022/02/19 15:46:25;;;;;;;7.67;1.20;;;9.40;99.90;;;;;;4976274;28;20236;-87
2022/02/19 15:48:52;;;;;;;10.77;1.40;;;9.40;99.90;;;;;;4976419;28;20186;-89
2022/02/19 15:51:19;;;;;;;5.27;1.53;;;9.20;99.90;;;;;;4976218;28;20181;-90
2022/02/19 15:53:45;;;;;;;6.20;1.87;;;9.20;99.90;;;;;;4976052;28;20180;-89
2022/02/19 15:56:10;;;;;;;5.73;1.23;;;9.00;99.90;;;;;;4976284;28;20262;-87
2022/02/19 15:58:36;;;;;;;11.37;1.87;;;9.00;99.90;;;;;;4976093;28;20212;-90
2022/02/19 16:01:03;;;;;;;7.63;2.03;;;9.10;99.90;;;;;;4976095;28;20190;-88
2022/02/19 16:03:30;;;;;;;5.60;1.57;;;9.10;99.90;;;;;;4976055;28;20228;-87
2022/02/19 16:05:56;;;;;;;8.97;1.60;;;9.20;99.90;;;;;;4976055;28;20180;-85
2022/02/19 16:08:24;;;;;;;9.60;2.00;;;9.20;99.90;;;;;;4975772;28;20645;-87
2022/02/19 16:10:50;;;;;;;8.17;2.17;;;9.20;99.90;;;;;;4977835;28;20186;-87
2022/02/19 16:13:15;;;;;;;6.80;2.07;;;9.20;99.90;;;;;;4979519;28;20177;-87
2022/02/19 16:15:44;;;;;;;9.97;2.67;;;9.20;99.90;;;;;;4979350;28;20580;-87
2022/02/19 16:18:11;;;;;;;8.63;2.13;;;9.20;99.90;;;;;;4979478;28;20177;-86
2022/02/19 16:20:37;;;;;;;7.10;2.00;;;9.20;99.90;;;;;;4979433;28;20174;-87
2022/02/19 16:23:04;;;;;;;10.47;1.50;;;9.20;99.90;;;;;;4979007;28;20224;-87
2022/02/19 16:25:31;;;;;;;5.93;1.30;;;9.10;99.90;;;;;;4979122;28;20175;-90
2022/02/19 16:27:56;;;;;;;8.73;2.37;;;9.00;99.90;;;;;;4987635;28;20181;-87
2022/02/19 16:30:22;;;;;;;7.20;1.60;;;9.10;99.90;;;;;;4979155;28;20216;-90
2022/02/19 16:32:48;;;;;;;7.93;1.70;;;9.10;99.90;;;;;;4979046;28;20179;-87
2022/02/19 16:35:14;;;;;;;9.60;1.63;;;9.20;99.90;;;;;;4979224;28;20198;-89
2022/02/19 16:37:39;;;;;;;8.60;1.30;;;9.10;99.90;;;;;;4978665;28;20210;-89
2022/02/19 16:40:06;;;;;;;9.73;1.63;;;9.00;99.90;;;;;;4979137;28;20246;-89
2022/02/19 16:42:33;;;;;;;9.57;1.70;;;9.00;99.90;;;;;;4994957;28;20312;-88